Latest Coastal Weather Observations for Darwin Airport

IDD60701

Issued at 9:01 pm CST Wednesday 27 July 2016 (issued every 10 minutes, with the page automatically refreshed every 10 minutes)

About coastal observations | Map of coastal stations | Coastal observations for NT | Marine services | Other Formats
Station Details ID: 014015 Name: DARWIN AIRPORT Lat: -12.42 Lon: 130.89 Height: 30.4 m
Data from the previous 72 hours. | See also: Recent months at Darwin Airport
Date/Time
CST
Temp
°C
Wind Pressure Rain since
9am
mm
Weather Cloud Vis
km
Sea
Height
m
Swell
Dir  Spd
kts
Gust
kts
hPa Trend Height
m
Period
s
Dir
27/08:30pm 24.0 NE 5 5 1013.2 - 0.0 - - 10 - - - -
27/08:00pm 24.8 NE 7 9 1012.8 - 0.0 - - 10 - - - -
27/07:30pm 26.0 NE 8 10 1012.5 - 0.0 - - 10 - - - -
27/07:00pm 27.2 NNE 9 12 1012.1 - 0.0 - - 10 - - - -
27/06:30pm 31.1 ESE 8 11 1011.7 - 0.0 - - 10 - - - -
27/06:00pm 32.0 ESE 10 15 1011.3 R 0.0 Smoke Mostly clear 30 - - - -
27/05:30pm 32.2 ESE 10 16 1011.0 - 0.0 - - 10 - - - -
27/05:00pm 32.8 ESE 12 17 1010.8 - 0.0 - - 10 - - - -
27/04:30pm 32.4 E 14 19 1010.7 - 0.0 - - 10 - - - -
27/04:00pm 32.3 ESE 17 21 1010.7 - 0.0 - - 10 - - - -
27/03:30pm 32.8 E 14 23 1010.6 - 0.0 - - 10 - - - -
27/03:03pm 32.4 SE 13 25 1010.9 - 0.0 - - 10 - - - -
27/03:00pm 32.4 SE 13 19 1011.0 F 0.0 Smoke Mostly clear 30 - - - -
27/02:30pm 31.9 SE 15 21 1011.5 - 0.0 - - 10 - - - -
27/02:00pm 31.8 ESE 16 27 1011.8 - 0.0 - - 10 - - - -
27/01:57pm 31.2 SE 16 27 1011.9 - 0.0 - - 10 - - - -
27/01:30pm 31.3 ESE 15 22 1012.3 - 0.0 - - 10 - - - -
27/01:00pm 30.9 SE 13 20 1013.0 - 0.0 - - 10 - - - -
27/12:30pm 30.3 ESE 17 25 1013.6 - 0.0 - - 10 - - - -
27/12:00pm 29.6 ESE 19 24 1014.0 F 0.0 Fine Mostly clear 30 - - - -
27/11:30am 29.6 ESE 17 26 1014.6 - 0.0 - - 10 - - - -
27/11:00am 28.4 E 19 24 1015.0 - 0.0 - - 10 - - - -
27/10:30am 27.4 ESE 16 21 1015.3 - 0.0 - - 10 - - - -
27/10:00am 26.2 SE 15 19 1015.6 - 0.0 - - 10 - - - -
27/09:30am 25.4 SE 17 21 1015.8 - 0.0 - - 10 - - - -
27/09:00am 24.7 SSE 11 15 1015.4 R 0.0 Fine Mostly clear 30 - - - -
27/08:30am 23.9 SE 7 9 1014.8 - 0.0 - - 10 - - - -
27/08:00am 23.0 ESE 5 6 1014.4 - 0.0 - - 10 - - - -
27/07:30am 21.7 SE 7 8 1014.1 - 0.0 - - 10 - - - -
27/07:00am 21.1 SE 6 7 1013.7 - 0.0 - - 10 - - - -
27/06:30am 19.6 SE 4 5 1013.3 - 0.0 - - 10 - - - -
27/06:00am 20.0 SE 4 5 1013.2 R 0.0 Fine Clear 30 - - - -
27/05:30am 19.9 ESE 3 4 1013.0 - 0.0 - - 10 - - - -
27/05:00am 20.1 ESE 3 4 1013.1 - 0.0 - - 10 - - - -
27/04:30am 20.2 ESE 3 4 1012.9 - 0.0 - - 10 - - - -
27/04:00am 20.3 SE 3 4 1012.8 - 0.0 - - 10 - - - -
27/03:30am 20.4 SE 3 4 1012.8 - 0.0 - - 10 - - - -
27/03:00am 20.7 ESE 4 5 1012.8 F 0.0 - - 10 - - - -
27/02:30am 20.9 ESE 3 4 1012.9 - 0.0 - - 10 - - - -
27/02:00am 21.3 SE 3 4 1012.9 - 0.0 - - 10 - - - -
27/01:30am 21.7 SE 4 5 1013.0 - 0.0 - - 10 - - - -
27/01:00am 21.8 ESE 4 4 1013.3 - 0.0 - - 10 - - - -
27/12:30am 22.2 SSE 5 6 1013.3 - 0.0 - - 10 - - - -
27/12:00am 23.1 S 6 7 1013.5 R 0.0 Fine Clear 30 - - - -
 
Date/Time
CST
Temp
°C
Wind Pressure Rain since
9am
mm
Weather Cloud Vis
km
Sea
Height
m
Swell
Dir  Spd
kts
Gust
kts
hPa Trend Height
m
Period
s
Dir
26/11:30pm 24.1 S 7 9 1013.5 - 0.0 - - 10 - - - -
26/11:00pm 24.0 S 7 9 1013.5 - 0.0 - - 10 - - - -
26/10:30pm 24.2 S 6 8 1013.4 - 0.0 - - 10 - - - -
26/10:00pm 23.7 SE 4 5 1013.0 - 0.0 - - 10 - - - -
26/09:30pm 22.9 CALM 0 0 1012.9 - 0.0 - - 10 - - - -
26/09:00pm 23.5 NNE 2 4 1012.6 R 0.0 Fine Mostly clear 30 - - - -
26/08:30pm 24.0 NNE 5 6 1012.4 - 0.0 - - 10 - - - -
26/08:00pm 25.1 NE 5 6 1012.0 - 0.0 - - 10 - - - -
26/07:30pm 27.1 NNE 6 7 1011.6 - 0.0 - - 10 - - - -
26/07:00pm 27.4 NNE 8 10 1011.2 - 0.0 - - 10 - - - -
26/06:30pm 28.3 N 8 10 1010.7 - 0.0 - - 10 - - - -
26/06:00pm 29.5 N 9 12 1010.3 R 0.0 Fine Mostly clear 30 - - - -
26/05:30pm 30.0 N 10 13 1009.9 - 0.0 - - 10 - - - -
26/05:00pm 30.2 NNW 11 15 1009.7 - 0.0 - - 10 - - - -
26/04:30pm 30.5 NNW 13 16 1009.6 - 0.0 - - 10 - - - -
26/04:00pm 33.0 E 9 16 1009.6 - 0.0 - - 10 - - - -
26/03:30pm 33.0 E 10 17 1009.8 - 0.0 - - 10 - - - -
26/03:00pm 33.2 E 11 16 1010.0 F 0.0 Fine Mostly clear 30 - - - -
26/02:30pm 32.8 E 11 19 1010.5 - 0.0 - - 10 - - - -
26/02:00pm 32.0 ESE 13 18 1011.0 - 0.0 - - 10 - - - -
26/01:30pm 32.2 ESE 12 17 1011.6 - 0.0 - - 10 - - - -
26/01:00pm 31.7 ESE 13 18 1012.1 - 0.0 - - 10 - - - -
26/12:30pm 30.8 ESE 11 16 1012.6 - 0.0 - - 10 - - - -
26/12:00pm 30.4 ESE 13 18 1012.9 F 0.0 Fine Mostly clear 30 - - - -
26/11:30am 30.0 ESE 14 19 1013.4 - 0.0 - - 10 - - - -
26/11:00am 29.5 ESE 14 18 1013.8 - 0.0 - - 10 - - - -
26/10:30am 29.2 ESE 16 20 1014.0 - 0.0 - - 10 - - - -
26/10:00am 28.0 ESE 11 15 1014.2 - 0.0 - - 10 - - - -
26/09:30am 27.6 E 9 11 1014.2 - 0.0 - - 10 - - - -
26/09:00am 26.7 E 7 9 1014.0 F 0.0 Fine Mostly clear 30 - - - -
26/08:30am 25.6 SE 5 6 1013.8 - 0.0 - - 10 - - - -
26/08:00am 23.5 SE 5 5 1013.6 - 0.0 - - 10 - - - -
26/07:53am 22.4 SE 4 5 1013.6 - 0.0 - - 10 - - - -
26/07:30am 20.4 SE 3 4 1013.4 - 0.0 - - 10 - - - -
26/07:00am 20.5 SE 5 5 1013.1 - 0.0 Fog patches - 10 - - - -
26/06:30am 21.0 ESE 5 6 1012.9 - 0.0 - - 10 - - - -
26/06:00am 21.1 ESE 1 5 1012.9 R 0.0 Fine Clear 25 - - - -
26/05:30am 21.3 CALM 0 0 1012.8 - 0.0 - - 10 - - - -
26/05:00am 21.4 CALM 0 0 1012.8 - 0.0 - - 10 - - - -
26/04:30am 21.5 CALM 0 3 1012.5 - 0.0 - - 10 - - - -
26/04:00am 21.6 ESE 5 5 1012.6 - 0.0 - - 10 - - - -
26/03:30am 21.8 ESE 3 4 1012.6 - 0.0 - - 10 - - - -
26/03:00am 22.0 ESE 3 4 1012.5 S 0.0 - Mostly clear 10 - - - -
26/02:30am 21.9 SE 3 4 1012.6 - 0.0 - Cloudy 10 - - - -
26/02:00am 22.0 ESE 3 4 1012.6 - 0.0 - Partly cloudy 10 - - - -
26/01:30am 21.9 ESE 2 4 1012.8 - 0.0 - - 10 - - - -
26/01:00am 22.0 ESE 5 6 1012.9 - 0.0 - - 10 - - - -
26/12:30am 21.9 SE 4 5 1012.9 - 0.0 - - 10 - - - -
26/12:00am 22.6 SSE 2 4 1013.0 R 0.0 Fine Mostly clear 30 - - - -
 
Date/Time
CST
Temp
°C
Wind Pressure Rain since
9am
mm
Weather Cloud Vis
km
Sea
Height
m
Swell
Dir  Spd
kts
Gust
kts
hPa Trend Height
m
Period
s
Dir
25/11:30pm 22.7 S 4 5 1013.1 - 0.0 - - 10 - - - -
25/11:00pm 22.5 S 3 4 1013.0 - 0.0 - - 10 - - - -
25/10:30pm 22.5 CALM 0 0 1012.9 - 0.0 - - 10 - - - -
25/10:00pm 22.9 SW 3 4 1012.8 - 0.0 - - 10 - - - -
25/09:30pm 23.8 WSW 3 4 1012.4 - 0.0 - - 10 - - - -
25/09:00pm 25.2 W 4 5 1012.2 R 0.0 Fine Clear 30 - - - -
25/08:30pm 25.4 W 6 7 1011.8 - 0.0 - - 10 - - - -
25/08:00pm 25.8 W 7 8 1011.3 - 0.0 - - 10 - - - -
25/07:30pm 26.2 W 6 7 1011.0 - 0.0 - - 10 - - - -
25/07:00pm 27.3 WNW 5 6 1010.8 - 0.0 - - 10 - - - -
25/06:30pm 27.7 NNW 6 7 1010.7 - 0.0 - - 10 - - - -
25/06:00pm 28.4 N 9 12 1010.3 R 0.0 Smoke Mostly clear 30 - - - -
25/05:30pm 29.2 N 9 12 1010.0 - 0.0 - - 10 - - - -
25/05:00pm 29.4 N 11 15 1009.9 - 0.0 - Mostly clear 10 - - - -
25/04:30pm 30.1 N 11 15 1009.8 - 0.0 - - 10 - - - -
25/04:00pm 30.3 N 12 14 1009.9 - 0.0 - Mostly clear 10 - - - -
25/03:30pm 30.1 N 13 16 1010.0 - 0.0 - - 10 - - - -
25/03:00pm 30.3 NNW 12 16 1010.0 S 0.0 Fine Mostly clear 30 - - - -
25/02:30pm 30.8 NW 10 14 1010.4 - 0.0 - Partly cloudy 10 - - - -
25/02:00pm 32.3 NW 5 10 1010.8 - 0.0 - Partly cloudy 10 - - - -
25/01:30pm 31.9 SW 6 9 1011.4 - 0.0 - Partly cloudy 10 - - - -
25/01:00pm 32.0 SE 11 14 1011.7 - 0.0 - Partly cloudy 10 - - - -
25/12:30pm 31.7 SE 11 16 1012.3 - 0.0 - Partly cloudy 10 - - - -
25/12:00pm 30.4 E 9 15 1012.7 F 0.0 Fine Mostly clear 30 - - - -
25/11:30am 30.0 S 6 10 1012.9 - 0.0 - Partly cloudy 10 - - - -
25/11:00am 29.3 SSW 5 8 1013.0 - 0.0 - Mostly clear 10 - - - -
25/10:30am 29.1 SE 5 8 1013.5 - 0.0 - Mostly clear 10 - - - -
25/10:00am 27.9 ESE 5 8 1013.7 - 0.0 - Mostly clear 10 - - - -
25/09:30am 27.2 SE 6 8 1013.9 - 0.0 - - 10 - - - -
25/09:00am 26.2 SE 7 8 1013.8 R 0.0 Fine Mostly clear 30 - - - -
25/08:30am 24.4 WSW 5 6 1013.5 - 0.0 - - 10 - - - -
25/08:00am 23.6 WSW 5 6 1013.2 - 0.0 - - 10 - - - -
25/07:30am 22.8 WSW 6 6 1012.9 - 0.0 - - 10 - - - -
25/07:00am 22.9 WSW 5 6 1012.5 - 0.0 Fog patches - 10 - - - -
25/06:42am 21.8 WSW 2 4 1012.5 - 0.0 Fog patches - 10 - - - -
25/06:30am 21.9 CALM 0 0 1012.4 - 0.0 - - 10 - - - -
25/06:00am 22.4 WSW 1 3 1012.1 F 0.0 Fine Mostly clear 30 - - - -
25/05:30am 22.4 WSW 3 5 1012.0 - 0.0 - - 10 - - - -
25/05:00am 22.9 WSW 5 6 1011.9 - 0.0 - - 10 - - - -
25/04:30am 23.2 WSW 6 6 1011.8 - 0.0 - - 10 - - - -
25/04:00am 22.9 WSW 5 6 1011.8 - 0.0 - - 10 - - - -
25/03:30am 22.4 CALM 0 0 1011.8 - 0.0 - - 10 - - - -
25/03:00am 22.2 CALM 0 0 1011.9 R 0.0 - - 10 - - - -
25/02:30am 22.3 CALM 0 0 1012.0 - 0.0 - - 10 - - - -
25/02:00am 22.6 CALM 0 0 1012.3 - 0.0 - - 10 - - - -
25/01:30am 23.1 WSW 3 4 1012.4 - 0.0 - - 10 - - - -
25/01:00am 24.6 WSW 4 5 1012.5 - 0.0 - - 10 - - - -
25/12:30am 23.5 CALM 0 0 1012.4 - 0.0 - - 10 - - - -
25/12:00am 23.6 NNE 3 4 1012.3 F 0.0 Fine Clear 30 - - - -
 
Date/Time
CST
Temp
°C
Wind Pressure Rain since
9am
mm
Weather Cloud Vis
km
Sea
Height
m
Swell
Dir  Spd
kts
Gust
kts
hPa Trend Height
m
Period
s
Dir
24/11:30pm 24.1 NNE 3 4 1012.6 - 0.0 - - 10 - - - -
24/11:04pm 24.8 ENE 3 4 1012.8 - 0.0 - Partly cloudy 10 - - - -
24/11:00pm 25.0 ENE 3 4 1012.8 - 0.0 - Partly cloudy 10 - - - -
24/10:30pm 25.7 E 5 5 1013.0 - 0.0 - Partly cloudy 10 - - - -
24/10:00pm 26.0 E 6 7 1012.8 - 0.0 - Partly cloudy 10 - - - -
24/09:30pm 26.1 E 7 8 1012.7 - 0.0 - Partly cloudy 10 - - - -

Other Formats:

Comma delimited format used in spreadsheet applications
http://www.bom.gov.au/fwo/IDD60701/IDD60701.94120.axf

JavaScript Object Notation format (JSON) in row-major order
http://www.bom.gov.au/fwo/IDD60701/IDD60701.94120.json